sensor_id;sensor_type;location;lat;lon;timestamp;P1;durP1;ratioP1;P2;durP2;ratioP2
72635;SDS011;60679;48.888;15.544;2023-08-20T00:00:03;8.63;;;4.67;;
72635;SDS011;60679;48.888;15.544;2023-08-20T00:02:30;8.75;;;3.83;;
72635;SDS011;60679;48.888;15.544;2023-08-20T00:04:57;12.50;;;3.83;;
72635;SDS011;60679;48.888;15.544;2023-08-20T00:07:23;9.48;;;4.35;;
72635;SDS011;60679;48.888;15.544;2023-08-20T00:09:49;8.33;;;4.23;;
72635;SDS011;60679;48.888;15.544;2023-08-20T00:12:14;9.57;;;3.93;;
72635;SDS011;60679;48.888;15.544;2023-08-20T00:14:53;8.55;;;4.30;;
72635;SDS011;60679;48.888;15.544;2023-08-20T00:17:35;10.85;;;4.22;;
72635;SDS011;60679;48.888;15.544;2023-08-20T00:20:03;8.67;;;3.83;;
72635;SDS011;60679;48.888;15.544;2023-08-20T00:22:35;9.68;;;4.45;;
72635;SDS011;60679;48.888;15.544;2023-08-20T00:25:02;10.40;;;3.78;;
72635;SDS011;60679;48.888;15.544;2023-08-20T00:27:30;13.57;;;4.28;;
72635;SDS011;60679;48.888;15.544;2023-08-20T00:29:56;8.30;;;3.90;;
72635;SDS011;60679;48.888;15.544;2023-08-20T00:32:22;8.13;;;3.80;;
72635;SDS011;60679;48.888;15.544;2023-08-20T00:34:47;10.20;;;4.47;;
72635;SDS011;60679;48.888;15.544;2023-08-20T00:37:12;9.83;;;4.17;;
72635;SDS011;60679;48.888;15.544;2023-08-20T00:39:38;8.73;;;4.43;;
72635;SDS011;60679;48.888;15.544;2023-08-20T00:42:04;9.50;;;4.03;;
72635;SDS011;60679;48.888;15.544;2023-08-20T00:44:29;7.50;;;4.00;;
72635;SDS011;60679;48.888;15.544;2023-08-20T00:46:55;8.18;;;4.05;;
72635;SDS011;60679;48.888;15.544;2023-08-20T00:49:21;9.88;;;4.45;;
72635;SDS011;60679;48.888;15.544;2023-08-20T00:51:47;18.50;;;4.27;;
72635;SDS011;60679;48.888;15.544;2023-08-20T00:54:13;10.02;;;4.63;;
72635;SDS011;60679;48.888;15.544;2023-08-20T00:56:38;12.57;;;4.87;;
72635;SDS011;60679;48.888;15.544;2023-08-20T00:59:04;10.90;;;4.20;;
72635;SDS011;60679;48.888;15.544;2023-08-20T01:01:31;10.80;;;4.40;;
72635;SDS011;60679;48.888;15.544;2023-08-20T01:03:56;9.27;;;4.20;;
72635;SDS011;60679;48.888;15.544;2023-08-20T01:12:13;7.72;;;3.90;;
72635;SDS011;60679;48.888;15.544;2023-08-20T01:14:38;8.00;;;3.60;;
72635;SDS011;60679;48.888;15.544;2023-08-20T01:17:04;7.80;;;3.67;;
72635;SDS011;60679;48.888;15.544;2023-08-20T01:19:30;9.30;;;3.70;;
72635;SDS011;60679;48.888;15.544;2023-08-20T01:30:06;7.88;;;3.83;;
72635;SDS011;60679;48.888;15.544;2023-08-20T01:32:31;7.60;;;3.95;;
72635;SDS011;60679;48.888;15.544;2023-08-20T01:34:58;10.07;;;3.93;;
72635;SDS011;60679;48.888;15.544;2023-08-20T01:37:23;8.88;;;4.68;;
72635;SDS011;60679;48.888;15.544;2023-08-20T01:39:49;10.67;;;3.77;;
72635;SDS011;60679;48.888;15.544;2023-08-20T01:42:14;9.67;;;3.60;;
72635;SDS011;60679;48.888;15.544;2023-08-20T01:44:40;8.35;;;3.72;;
72635;SDS011;60679;48.888;15.544;2023-08-20T01:47:05;11.00;;;4.00;;
72635;SDS011;60679;48.888;15.544;2023-08-20T01:49:30;9.77;;;4.43;;
72635;SDS011;60679;48.888;15.544;2023-08-20T01:51:56;8.33;;;4.20;;
72635;SDS011;60679;48.888;15.544;2023-08-20T01:54:21;7.03;;;3.87;;
72635;SDS011;60679;48.888;15.544;2023-08-20T01:56:47;8.87;;;4.00;;
72635;SDS011;60679;48.888;15.544;2023-08-20T01:59:12;9.90;;;4.40;;
72635;SDS011;60679;48.888;15.544;2023-08-20T02:01:37;13.43;;;4.17;;
72635;SDS011;60679;48.888;15.544;2023-08-20T02:04:03;9.37;;;4.40;;
72635;SDS011;60679;48.888;15.544;2023-08-20T02:06:28;8.17;;;4.37;;
72635;SDS011;60679;48.888;15.544;2023-08-20T02:08:54;9.25;;;4.40;;
72635;SDS011;60679;48.888;15.544;2023-08-20T02:11:19;8.20;;;4.03;;
72635;SDS011;60679;48.888;15.544;2023-08-20T02:13:44;7.47;;;3.53;;
72635;SDS011;60679;48.888;15.544;2023-08-20T02:16:10;7.63;;;3.87;;
72635;SDS011;60679;48.888;15.544;2023-08-20T02:18:35;11.70;;;4.17;;
72635;SDS011;60679;48.888;15.544;2023-08-20T02:21:00;9.13;;;4.87;;
72635;SDS011;60679;48.888;15.544;2023-08-20T02:23:26;11.63;;;4.20;;
72635;SDS011;60679;48.888;15.544;2023-08-20T02:25:51;8.17;;;4.40;;
72635;SDS011;60679;48.888;15.544;2023-08-20T02:28:17;9.90;;;4.60;;
72635;SDS011;60679;48.888;15.544;2023-08-20T02:30:43;11.13;;;5.13;;
72635;SDS011;60679;48.888;15.544;2023-08-20T02:33:09;8.63;;;3.67;;
72635;SDS011;60679;48.888;15.544;2023-08-20T02:35:38;10.75;;;4.82;;
72635;SDS011;60679;48.888;15.544;2023-08-20T02:38:04;8.75;;;3.55;;
72635;SDS011;60679;48.888;15.544;2023-08-20T02:40:30;14.18;;;4.40;;
72635;SDS011;60679;48.888;15.544;2023-08-20T02:42:55;14.47;;;4.93;;
72635;SDS011;60679;48.888;15.544;2023-08-20T02:45:21;10.27;;;3.83;;
72635;SDS011;60679;48.888;15.544;2023-08-20T02:47:46;9.20;;;4.10;;
72635;SDS011;60679;48.888;15.544;2023-08-20T02:50:12;8.57;;;4.50;;
72635;SDS011;60679;48.888;15.544;2023-08-20T02:52:37;11.40;;;3.87;;
72635;SDS011;60679;48.888;15.544;2023-08-20T02:55:02;14.03;;;4.30;;
72635;SDS011;60679;48.888;15.544;2023-08-20T02:57:29;10.57;;;4.18;;
72635;SDS011;60679;48.888;15.544;2023-08-20T02:59:55;8.15;;;4.13;;
72635;SDS011;60679;48.888;15.544;2023-08-20T03:02:20;11.53;;;5.47;;
72635;SDS011;60679;48.888;15.544;2023-08-20T03:04:46;8.90;;;4.67;;
72635;SDS011;60679;48.888;15.544;2023-08-20T03:07:11;10.03;;;4.40;;
72635;SDS011;60679;48.888;15.544;2023-08-20T03:09:37;9.13;;;4.37;;
72635;SDS011;60679;48.888;15.544;2023-08-20T03:12:02;8.57;;;3.30;;
72635;SDS011;60679;48.888;15.544;2023-08-20T03:14:27;10.40;;;4.27;;
72635;SDS011;60679;48.888;15.544;2023-08-20T03:16:53;8.90;;;4.43;;
72635;SDS011;60679;48.888;15.544;2023-08-20T03:19:18;13.90;;;4.40;;
72635;SDS011;60679;48.888;15.544;2023-08-20T03:21:43;8.77;;;3.87;;
72635;SDS011;60679;48.888;15.544;2023-08-20T03:24:09;7.83;;;4.40;;
72635;SDS011;60679;48.888;15.544;2023-08-20T03:26:34;12.87;;;4.73;;
72635;SDS011;60679;48.888;15.544;2023-08-20T03:28:59;12.18;;;4.20;;
72635;SDS011;60679;48.888;15.544;2023-08-20T03:31:25;8.97;;;4.03;;
72635;SDS011;60679;48.888;15.544;2023-08-20T03:33:50;14.30;;;4.50;;
72635;SDS011;60679;48.888;15.544;2023-08-20T03:36:16;9.07;;;4.30;;
72635;SDS011;60679;48.888;15.544;2023-08-20T03:38:41;8.10;;;4.20;;
72635;SDS011;60679;48.888;15.544;2023-08-20T03:41:07;9.82;;;4.05;;
72635;SDS011;60679;48.888;15.544;2023-08-20T03:43:32;12.73;;;4.53;;
72635;SDS011;60679;48.888;15.544;2023-08-20T03:45:58;9.00;;;4.47;;
72635;SDS011;60679;48.888;15.544;2023-08-20T03:48:23;9.00;;;4.43;;
72635;SDS011;60679;48.888;15.544;2023-08-20T03:50:48;9.03;;;4.50;;
72635;SDS011;60679;48.888;15.544;2023-08-20T03:53:14;8.45;;;4.00;;
72635;SDS011;60679;48.888;15.544;2023-08-20T03:55:40;9.87;;;4.67;;
72635;SDS011;60679;48.888;15.544;2023-08-20T03:58:05;9.27;;;4.13;;
72635;SDS011;60679;48.888;15.544;2023-08-20T04:00:30;8.82;;;4.32;;
72635;SDS011;60679;48.888;15.544;2023-08-20T04:02:55;9.53;;;3.77;;
72635;SDS011;60679;48.888;15.544;2023-08-20T04:05:21;7.07;;;3.80;;
72635;SDS011;60679;48.888;15.544;2023-08-20T04:07:46;9.77;;;4.03;;
72635;SDS011;60679;48.888;15.544;2023-08-20T04:10:12;8.77;;;3.77;;
72635;SDS011;60679;48.888;15.544;2023-08-20T04:12:37;12.00;;;5.10;;
72635;SDS011;60679;48.888;15.544;2023-08-20T04:15:02;13.85;;;5.03;;
72635;SDS011;60679;48.888;15.544;2023-08-20T04:17:28;11.97;;;4.90;;
72635;SDS011;60679;48.888;15.544;2023-08-20T04:19:53;14.13;;;5.40;;
72635;SDS011;60679;48.888;15.544;2023-08-20T04:22:19;11.07;;;4.70;;
72635;SDS011;60679;48.888;15.544;2023-08-20T04:24:44;8.23;;;4.47;;
72635;SDS011;60679;48.888;15.544;2023-08-20T04:27:10;12.27;;;5.00;;
72635;SDS011;60679;48.888;15.544;2023-08-20T04:29:35;13.60;;;4.70;;
72635;SDS011;60679;48.888;15.544;2023-08-20T04:32:00;9.23;;;4.13;;
72635;SDS011;60679;48.888;15.544;2023-08-20T04:34:26;7.93;;;3.50;;
72635;SDS011;60679;48.888;15.544;2023-08-20T04:36:51;10.17;;;4.13;;
72635;SDS011;60679;48.888;15.544;2023-08-20T04:39:17;8.37;;;4.40;;
72635;SDS011;60679;48.888;15.544;2023-08-20T04:41:43;7.75;;;4.30;;
72635;SDS011;60679;48.888;15.544;2023-08-20T04:44:08;8.03;;;3.70;;
72635;SDS011;60679;48.888;15.544;2023-08-20T04:46:34;9.30;;;4.97;;
72635;SDS011;60679;48.888;15.544;2023-08-20T04:48:59;10.67;;;4.97;;
72635;SDS011;60679;48.888;15.544;2023-08-20T04:51:26;10.90;;;4.33;;
72635;SDS011;60679;48.888;15.544;2023-08-20T04:53:54;11.35;;;4.30;;
72635;SDS011;60679;48.888;15.544;2023-08-20T04:56:19;8.30;;;4.03;;
72635;SDS011;60679;48.888;15.544;2023-08-20T04:58:45;9.43;;;4.90;;
72635;SDS011;60679;48.888;15.544;2023-08-20T05:01:10;8.77;;;4.53;;
72635;SDS011;60679;48.888;15.544;2023-08-20T05:03:36;8.00;;;4.27;;
72635;SDS011;60679;48.888;15.544;2023-08-20T05:06:01;9.93;;;4.50;;
72635;SDS011;60679;48.888;15.544;2023-08-20T05:08:28;9.35;;;4.05;;
72635;SDS011;60679;48.888;15.544;2023-08-20T05:10:53;7.33;;;3.87;;
72635;SDS011;60679;48.888;15.544;2023-08-20T05:13:18;8.60;;;4.27;;
72635;SDS011;60679;48.888;15.544;2023-08-20T05:15:45;8.13;;;3.80;;
72635;SDS011;60679;48.888;15.544;2023-08-20T05:18:11;9.95;;;5.10;;
72635;SDS011;60679;48.888;15.544;2023-08-20T05:20:36;9.03;;;4.80;;
72635;SDS011;60679;48.888;15.544;2023-08-20T05:23:02;13.00;;;3.90;;
72635;SDS011;60679;48.888;15.544;2023-08-20T05:25:29;12.70;;;4.93;;
72635;SDS011;60679;48.888;15.544;2023-08-20T05:27:54;9.17;;;4.70;;
72635;SDS011;60679;48.888;15.544;2023-08-20T05:30:19;10.67;;;3.93;;
72635;SDS011;60679;48.888;15.544;2023-08-20T05:32:45;8.40;;;3.83;;
72635;SDS011;60679;48.888;15.544;2023-08-20T05:35:10;9.20;;;5.00;;
72635;SDS011;60679;48.888;15.544;2023-08-20T05:37:35;9.07;;;5.03;;
72635;SDS011;60679;48.888;15.544;2023-08-20T05:40:01;9.90;;;4.93;;
72635;SDS011;60679;48.888;15.544;2023-08-20T05:42:27;9.03;;;4.87;;
72635;SDS011;60679;48.888;15.544;2023-08-20T05:44:53;10.40;;;4.43;;
72635;SDS011;60679;48.888;15.544;2023-08-20T05:47:18;8.93;;;4.90;;
72635;SDS011;60679;48.888;15.544;2023-08-20T05:49:43;7.97;;;4.03;;
72635;SDS011;60679;48.888;15.544;2023-08-20T05:52:09;10.17;;;4.97;;
72635;SDS011;60679;48.888;15.544;2023-08-20T05:54:34;8.87;;;4.23;;
72635;SDS011;60679;48.888;15.544;2023-08-20T05:57:00;8.27;;;4.45;;
72635;SDS011;60679;48.888;15.544;2023-08-20T05:59:26;8.90;;;4.53;;
72635;SDS011;60679;48.888;15.544;2023-08-20T06:01:52;10.65;;;5.40;;
72635;SDS011;60679;48.888;15.544;2023-08-20T06:04:18;9.98;;;5.35;;
72635;SDS011;60679;48.888;15.544;2023-08-20T06:06:44;10.00;;;4.77;;
72635;SDS011;60679;48.888;15.544;2023-08-20T06:09:10;9.15;;;4.80;;
72635;SDS011;60679;48.888;15.544;2023-08-20T06:11:35;9.90;;;3.83;;
72635;SDS011;60679;48.888;15.544;2023-08-20T06:14:04;8.20;;;4.20;;
72635;SDS011;60679;48.888;15.544;2023-08-20T06:16:34;9.85;;;4.95;;
72635;SDS011;60679;48.888;15.544;2023-08-20T06:19:10;10.23;;;4.57;;
72635;SDS011;60679;48.888;15.544;2023-08-20T06:21:58;10.02;;;4.45;;
72635;SDS011;60679;48.888;15.544;2023-08-20T06:24:24;8.98;;;5.07;;
72635;SDS011;60679;48.888;15.544;2023-08-20T06:26:51;12.63;;;4.40;;
72635;SDS011;60679;48.888;15.544;2023-08-20T06:29:17;9.77;;;4.47;;
72635;SDS011;60679;48.888;15.544;2023-08-20T06:31:43;9.23;;;4.03;;
72635;SDS011;60679;48.888;15.544;2023-08-20T06:34:08;7.78;;;4.22;;
72635;SDS011;60679;48.888;15.544;2023-08-20T06:36:34;10.33;;;5.03;;
72635;SDS011;60679;48.888;15.544;2023-08-20T06:39:00;8.48;;;4.25;;
72635;SDS011;60679;48.888;15.544;2023-08-20T06:41:26;10.17;;;4.20;;
72635;SDS011;60679;48.888;15.544;2023-08-20T06:43:51;9.75;;;4.45;;
72635;SDS011;60679;48.888;15.544;2023-08-20T06:46:16;7.97;;;4.37;;
72635;SDS011;60679;48.888;15.544;2023-08-20T06:48:42;8.63;;;3.43;;
72635;SDS011;60679;48.888;15.544;2023-08-20T06:51:11;8.47;;;4.30;;
72635;SDS011;60679;48.888;15.544;2023-08-20T06:53:37;7.38;;;3.95;;
72635;SDS011;60679;48.888;15.544;2023-08-20T06:56:06;7.75;;;3.80;;
72635;SDS011;60679;48.888;15.544;2023-08-20T06:58:36;9.52;;;3.88;;
72635;SDS011;60679;48.888;15.544;2023-08-20T07:01:02;7.97;;;3.33;;
72635;SDS011;60679;48.888;15.544;2023-08-20T07:03:40;8.35;;;3.72;;
72635;SDS011;60679;48.888;15.544;2023-08-20T07:06:07;8.15;;;4.03;;
72635;SDS011;60679;48.888;15.544;2023-08-20T07:08:36;15.02;;;4.32;;
72635;SDS011;60679;48.888;15.544;2023-08-20T07:11:04;9.32;;;3.55;;
72635;SDS011;60679;48.888;15.544;2023-08-20T07:13:34;7.00;;;3.10;;
72635;SDS011;60679;48.888;15.544;2023-08-20T07:16:00;8.27;;;3.47;;
72635;SDS011;60679;48.888;15.544;2023-08-20T07:18:25;7.43;;;3.30;;
72635;SDS011;60679;48.888;15.544;2023-08-20T07:20:51;7.83;;;3.63;;
72635;SDS011;60679;48.888;15.544;2023-08-20T07:23:17;10.95;;;3.15;;
72635;SDS011;60679;48.888;15.544;2023-08-20T07:25:42;9.57;;;4.07;;
72635;SDS011;60679;48.888;15.544;2023-08-20T07:28:09;6.68;;;3.00;;
72635;SDS011;60679;48.888;15.544;2023-08-20T07:30:35;7.37;;;3.13;;
72635;SDS011;60679;48.888;15.544;2023-08-20T07:33:01;6.22;;;3.40;;
72635;SDS011;60679;48.888;15.544;2023-08-20T07:35:27;7.70;;;3.13;;
72635;SDS011;60679;48.888;15.544;2023-08-20T07:37:53;8.63;;;3.97;;
72635;SDS011;60679;48.888;15.544;2023-08-20T07:40:18;6.73;;;3.13;;
72635;SDS011;60679;48.888;15.544;2023-08-20T07:42:44;6.88;;;3.38;;
72635;SDS011;60679;48.888;15.544;2023-08-20T07:45:10;7.63;;;3.00;;
72635;SDS011;60679;48.888;15.544;2023-08-20T07:47:36;7.85;;;3.70;;
72635;SDS011;60679;48.888;15.544;2023-08-20T07:50:02;6.33;;;2.87;;
72635;SDS011;60679;48.888;15.544;2023-08-20T07:52:28;8.32;;;3.70;;
72635;SDS011;60679;48.888;15.544;2023-08-20T07:54:53;7.77;;;3.60;;
72635;SDS011;60679;48.888;15.544;2023-08-20T07:57:19;7.28;;;3.40;;
72635;SDS011;60679;48.888;15.544;2023-08-20T07:59:44;5.77;;;2.83;;
72635;SDS011;60679;48.888;15.544;2023-08-20T08:02:10;7.80;;;3.33;;
72635;SDS011;60679;48.888;15.544;2023-08-20T08:04:35;8.00;;;3.70;;
72635;SDS011;60679;48.888;15.544;2023-08-20T08:07:01;6.78;;;3.08;;
72635;SDS011;60679;48.888;15.544;2023-08-20T08:09:27;6.33;;;3.10;;
72635;SDS011;60679;48.888;15.544;2023-08-20T08:11:54;6.53;;;3.17;;
72635;SDS011;60679;48.888;15.544;2023-08-20T08:14:20;6.50;;;3.10;;
72635;SDS011;60679;48.888;15.544;2023-08-20T08:16:49;7.50;;;3.23;;
72635;SDS011;60679;48.888;15.544;2023-08-20T08:19:15;11.00;;;3.00;;
72635;SDS011;60679;48.888;15.544;2023-08-20T08:21:42;7.70;;;3.50;;
72635;SDS011;60679;48.888;15.544;2023-08-20T08:24:08;6.25;;;3.00;;
72635;SDS011;60679;48.888;15.544;2023-08-20T08:26:34;6.60;;;2.97;;
72635;SDS011;60679;48.888;15.544;2023-08-20T08:29:03;6.95;;;3.20;;
72635;SDS011;60679;48.888;15.544;2023-08-20T08:31:28;6.50;;;3.15;;
72635;SDS011;60679;48.888;15.544;2023-08-20T08:33:54;6.00;;;2.67;;
72635;SDS011;60679;48.888;15.544;2023-08-20T08:36:19;6.97;;;2.97;;
72635;SDS011;60679;48.888;15.544;2023-08-20T08:38:45;6.70;;;2.80;;
72635;SDS011;60679;48.888;15.544;2023-08-20T08:41:11;7.32;;;3.15;;
72635;SDS011;60679;48.888;15.544;2023-08-20T08:43:41;6.57;;;3.20;;
72635;SDS011;60679;48.888;15.544;2023-08-20T08:46:07;6.57;;;3.27;;
72635;SDS011;60679;48.888;15.544;2023-08-20T08:48:37;6.72;;;2.90;;
72635;SDS011;60679;48.888;15.544;2023-08-20T08:51:05;7.38;;;3.05;;
72635;SDS011;60679;48.888;15.544;2023-08-20T08:53:31;9.30;;;3.30;;
72635;SDS011;60679;48.888;15.544;2023-08-20T08:55:58;7.53;;;3.30;;
72635;SDS011;60679;48.888;15.544;2023-08-20T08:58:24;6.88;;;3.40;;
72635;SDS011;60679;48.888;15.544;2023-08-20T09:00:49;5.32;;;2.70;;
72635;SDS011;60679;48.888;15.544;2023-08-20T09:03:15;5.60;;;2.37;;
72635;SDS011;60679;48.888;15.544;2023-08-20T09:05:50;5.67;;;3.00;;
72635;SDS011;60679;48.888;15.544;2023-08-20T09:08:20;8.25;;;3.30;;
72635;SDS011;60679;48.888;15.544;2023-08-20T09:10:49;6.07;;;2.80;;
72635;SDS011;60679;48.888;15.544;2023-08-20T09:13:16;6.75;;;3.17;;
72635;SDS011;60679;48.888;15.544;2023-08-20T09:15:42;6.07;;;2.60;;
72635;SDS011;60679;48.888;15.544;2023-08-20T09:18:10;6.17;;;2.53;;
72635;SDS011;60679;48.888;15.544;2023-08-20T09:20:36;5.28;;;2.80;;
72635;SDS011;60679;48.888;15.544;2023-08-20T09:23:03;5.10;;;2.50;;
72635;SDS011;60679;48.888;15.544;2023-08-20T09:25:29;5.63;;;2.33;;
72635;SDS011;60679;48.888;15.544;2023-08-20T09:27:54;6.25;;;2.70;;
72635;SDS011;60679;48.888;15.544;2023-08-20T09:30:22;6.37;;;2.57;;
72635;SDS011;60679;48.888;15.544;2023-08-20T09:33:04;7.70;;;2.90;;
72635;SDS011;60679;48.888;15.544;2023-08-20T09:35:32;5.75;;;2.70;;
72635;SDS011;60679;48.888;15.544;2023-08-20T09:38:07;5.53;;;2.73;;
72635;SDS011;60679;48.888;15.544;2023-08-20T09:40:32;6.10;;;2.50;;
72635;SDS011;60679;48.888;15.544;2023-08-20T09:42:57;6.10;;;3.30;;
72635;SDS011;60679;48.888;15.544;2023-08-20T09:45:25;5.80;;;3.10;;
72635;SDS011;60679;48.888;15.544;2023-08-20T09:47:55;5.47;;;2.78;;
72635;SDS011;60679;48.888;15.544;2023-08-20T09:50:22;5.78;;;2.85;;
72635;SDS011;60679;48.888;15.544;2023-08-20T09:52:58;5.17;;;2.47;;
72635;SDS011;60679;48.888;15.544;2023-08-20T09:55:35;5.93;;;2.80;;
72635;SDS011;60679;48.888;15.544;2023-08-20T09:58:04;6.43;;;2.80;;
72635;SDS011;60679;48.888;15.544;2023-08-20T10:00:31;5.82;;;2.55;;
72635;SDS011;60679;48.888;15.544;2023-08-20T10:02:57;7.32;;;3.28;;
72635;SDS011;60679;48.888;15.544;2023-08-20T10:05:23;4.83;;;2.17;;
72635;SDS011;60679;48.888;15.544;2023-08-20T10:07:50;5.82;;;2.60;;
72635;SDS011;60679;48.888;15.544;2023-08-20T10:10:15;5.63;;;2.60;;
72635;SDS011;60679;48.888;15.544;2023-08-20T10:12:42;7.40;;;3.03;;
72635;SDS011;60679;48.888;15.544;2023-08-20T10:15:10;6.07;;;2.73;;
72635;SDS011;60679;48.888;15.544;2023-08-20T10:17:39;5.97;;;2.85;;
72635;SDS011;60679;48.888;15.544;2023-08-20T10:20:06;5.72;;;3.38;;
72635;SDS011;60679;48.888;15.544;2023-08-20T10:25:05;6.50;;;3.05;;
72635;SDS011;60679;48.888;15.544;2023-08-20T10:27:32;5.70;;;2.77;;
72635;SDS011;60679;48.888;15.544;2023-08-20T10:30:00;6.28;;;2.72;;
72635;SDS011;60679;48.888;15.544;2023-08-20T10:35:15;5.97;;;2.97;;
72635;SDS011;60679;48.888;15.544;2023-08-20T10:38:00;5.90;;;2.80;;
72635;SDS011;60679;48.888;15.544;2023-08-20T10:40:48;6.13;;;3.13;;
72635;SDS011;60679;48.888;15.544;2023-08-20T10:46:03;6.97;;;2.85;;
72635;SDS011;60679;48.888;15.544;2023-08-20T10:48:29;6.20;;;3.33;;
72635;SDS011;60679;48.888;15.544;2023-08-20T10:50:56;5.50;;;2.80;;
72635;SDS011;60679;48.888;15.544;2023-08-20T10:53:22;5.60;;;2.53;;
72635;SDS011;60679;48.888;15.544;2023-08-20T10:55:48;5.70;;;2.65;;
72635;SDS011;60679;48.888;15.544;2023-08-20T10:58:14;5.67;;;2.43;;
72635;SDS011;60679;48.888;15.544;2023-08-20T11:00:40;7.85;;;2.72;;
72635;SDS011;60679;48.888;15.544;2023-08-20T11:03:07;7.03;;;2.63;;
72635;SDS011;60679;48.888;15.544;2023-08-20T11:05:33;6.13;;;2.50;;
72635;SDS011;60679;48.888;15.544;2023-08-20T11:07:59;6.40;;;3.13;;
72635;SDS011;60679;48.888;15.544;2023-08-20T11:10:25;6.78;;;2.80;;
72635;SDS011;60679;48.888;15.544;2023-08-20T11:12:51;5.60;;;2.60;;
72635;SDS011;60679;48.888;15.544;2023-08-20T11:15:17;7.68;;;3.10;;
72635;SDS011;60679;48.888;15.544;2023-08-20T11:17:45;6.37;;;2.70;;
72635;SDS011;60679;48.888;15.544;2023-08-20T11:20:13;6.38;;;2.72;;
72635;SDS011;60679;48.888;15.544;2023-08-20T11:22:39;7.30;;;2.58;;
72635;SDS011;60679;48.888;15.544;2023-08-20T11:25:06;8.32;;;2.92;;
72635;SDS011;60679;48.888;15.544;2023-08-20T11:27:41;5.73;;;2.90;;
72635;SDS011;60679;48.888;15.544;2023-08-20T11:30:07;5.32;;;2.40;;
72635;SDS011;60679;48.888;15.544;2023-08-20T11:32:34;5.65;;;2.70;;
72635;SDS011;60679;48.888;15.544;2023-08-20T11:35:00;8.20;;;2.83;;
72635;SDS011;60679;48.888;15.544;2023-08-20T11:37:26;6.18;;;2.78;;
72635;SDS011;60679;48.888;15.544;2023-08-20T11:39:52;5.70;;;2.70;;
72635;SDS011;60679;48.888;15.544;2023-08-20T11:42:17;6.40;;;2.73;;
72635;SDS011;60679;48.888;15.544;2023-08-20T11:44:44;5.80;;;2.50;;
72635;SDS011;60679;48.888;15.544;2023-08-20T11:47:15;6.43;;;2.88;;
72635;SDS011;60679;48.888;15.544;2023-08-20T11:49:41;7.28;;;3.33;;
72635;SDS011;60679;48.888;15.544;2023-08-20T11:52:06;5.97;;;3.00;;
72635;SDS011;60679;48.888;15.544;2023-08-20T11:54:32;7.07;;;2.50;;
72635;SDS011;60679;48.888;15.544;2023-08-20T11:57:01;6.78;;;2.60;;
72635;SDS011;60679;48.888;15.544;2023-08-20T11:59:31;5.20;;;2.20;;
72635;SDS011;60679;48.888;15.544;2023-08-20T12:02:03;7.10;;;2.85;;
72635;SDS011;60679;48.888;15.544;2023-08-20T12:04:29;6.20;;;3.00;;
72635;SDS011;60679;48.888;15.544;2023-08-20T12:09:34;5.68;;;2.70;;
72635;SDS011;60679;48.888;15.544;2023-08-20T12:12:00;6.28;;;2.95;;
72635;SDS011;60679;48.888;15.544;2023-08-20T12:14:26;6.10;;;3.10;;
72635;SDS011;60679;48.888;15.544;2023-08-20T12:16:53;7.07;;;3.67;;
72635;SDS011;60679;48.888;15.544;2023-08-20T12:19:19;5.82;;;3.33;;
72635;SDS011;60679;48.888;15.544;2023-08-20T12:21:45;5.93;;;2.90;;
72635;SDS011;60679;48.888;15.544;2023-08-20T12:24:11;6.20;;;2.80;;
72635;SDS011;60679;48.888;15.544;2023-08-20T12:26:37;6.78;;;2.97;;
72635;SDS011;60679;48.888;15.544;2023-08-20T12:29:06;13.30;;;3.28;;
72635;SDS011;60679;48.888;15.544;2023-08-20T12:31:32;5.72;;;2.20;;
72635;SDS011;60679;48.888;15.544;2023-08-20T12:33:58;5.05;;;2.15;;
72635;SDS011;60679;48.888;15.544;2023-08-20T12:36:24;4.90;;;2.53;;
72635;SDS011;60679;48.888;15.544;2023-08-20T12:38:49;8.73;;;3.27;;
72635;SDS011;60679;48.888;15.544;2023-08-20T12:41:15;5.20;;;2.47;;
72635;SDS011;60679;48.888;15.544;2023-08-20T12:43:40;5.13;;;2.57;;
72635;SDS011;60679;48.888;15.544;2023-08-20T12:46:06;5.57;;;2.90;;
72635;SDS011;60679;48.888;15.544;2023-08-20T12:48:31;5.57;;;2.50;;
72635;SDS011;60679;48.888;15.544;2023-08-20T12:50:57;5.67;;;2.83;;
72635;SDS011;60679;48.888;15.544;2023-08-20T12:53:23;5.88;;;2.75;;
72635;SDS011;60679;48.888;15.544;2023-08-20T12:55:48;6.77;;;2.97;;
72635;SDS011;60679;48.888;15.544;2023-08-20T12:58:14;5.03;;;2.60;;
72635;SDS011;60679;48.888;15.544;2023-08-20T13:00:39;7.87;;;3.00;;
72635;SDS011;60679;48.888;15.544;2023-08-20T13:03:04;5.83;;;2.43;;
72635;SDS011;60679;48.888;15.544;2023-08-20T13:05:30;6.73;;;2.97;;
72635;SDS011;60679;48.888;15.544;2023-08-20T13:07:56;5.30;;;2.70;;
72635;SDS011;60679;48.888;15.544;2023-08-20T13:10:22;6.60;;;2.83;;
72635;SDS011;60679;48.888;15.544;2023-08-20T13:12:48;7.45;;;2.97;;
72635;SDS011;60679;48.888;15.544;2023-08-20T13:15:20;5.10;;;2.42;;
72635;SDS011;60679;48.888;15.544;2023-08-20T13:17:47;7.05;;;2.97;;
72635;SDS011;60679;48.888;15.544;2023-08-20T13:20:14;7.27;;;2.70;;
72635;SDS011;60679;48.888;15.544;2023-08-20T13:22:40;5.50;;;3.05;;
72635;SDS011;60679;48.888;15.544;2023-08-20T13:25:05;6.05;;;2.85;;
72635;SDS011;60679;48.888;15.544;2023-08-20T13:27:31;5.20;;;2.65;;
72635;SDS011;60679;48.888;15.544;2023-08-20T13:29:57;9.33;;;3.07;;
72635;SDS011;60679;48.888;15.544;2023-08-20T13:32:23;6.53;;;3.03;;
72635;SDS011;60679;48.888;15.544;2023-08-20T13:34:51;7.45;;;2.88;;
72635;SDS011;60679;48.888;15.544;2023-08-20T13:37:16;6.45;;;3.00;;
72635;SDS011;60679;48.888;15.544;2023-08-20T13:39:45;5.27;;;2.77;;
72635;SDS011;60679;48.888;15.544;2023-08-20T13:42:10;5.07;;;2.80;;
72635;SDS011;60679;48.888;15.544;2023-08-20T13:44:36;6.10;;;2.77;;
72635;SDS011;60679;48.888;15.544;2023-08-20T13:47:01;5.90;;;2.75;;
72635;SDS011;60679;48.888;15.544;2023-08-20T13:49:27;7.27;;;2.80;;
72635;SDS011;60679;48.888;15.544;2023-08-20T13:51:52;5.47;;;2.63;;
72635;SDS011;60679;48.888;15.544;2023-08-20T13:54:18;7.67;;;2.90;;
72635;SDS011;60679;48.888;15.544;2023-08-20T13:56:43;5.77;;;2.93;;
72635;SDS011;60679;48.888;15.544;2023-08-20T13:59:09;5.40;;;3.00;;
72635;SDS011;60679;48.888;15.544;2023-08-20T14:01:35;5.45;;;2.90;;
72635;SDS011;60679;48.888;15.544;2023-08-20T14:04:00;5.97;;;3.30;;
72635;SDS011;60679;48.888;15.544;2023-08-20T14:06:25;6.47;;;3.60;;
72635;SDS011;60679;48.888;15.544;2023-08-20T14:08:51;6.53;;;3.37;;
72635;SDS011;60679;48.888;15.544;2023-08-20T14:11:22;7.68;;;3.30;;
72635;SDS011;60679;48.888;15.544;2023-08-20T14:13:48;5.57;;;2.67;;
72635;SDS011;60679;48.888;15.544;2023-08-20T14:16:14;7.20;;;2.70;;
72635;SDS011;60679;48.888;15.544;2023-08-20T14:18:39;5.85;;;2.92;;
72635;SDS011;60679;48.888;15.544;2023-08-20T14:21:05;6.67;;;2.80;;
72635;SDS011;60679;48.888;15.544;2023-08-20T14:23:30;7.33;;;2.90;;
72635;SDS011;60679;48.888;15.544;2023-08-20T14:25:56;10.10;;;3.05;;
72635;SDS011;60679;48.888;15.544;2023-08-20T14:28:21;6.30;;;3.17;;
72635;SDS011;60679;48.888;15.544;2023-08-20T14:30:47;8.10;;;3.50;;
72635;SDS011;60679;48.888;15.544;2023-08-20T14:33:14;8.60;;;3.20;;
72635;SDS011;60679;48.888;15.544;2023-08-20T14:35:39;8.27;;;2.67;;
72635;SDS011;60679;48.888;15.544;2023-08-20T14:38:05;5.95;;;3.00;;
72635;SDS011;60679;48.888;15.544;2023-08-20T14:40:32;5.93;;;2.90;;
72635;SDS011;60679;48.888;15.544;2023-08-20T14:42:59;4.93;;;2.63;;
72635;SDS011;60679;48.888;15.544;2023-08-20T14:45:24;6.30;;;2.88;;
72635;SDS011;60679;48.888;15.544;2023-08-20T14:47:49;5.30;;;2.77;;
72635;SDS011;60679;48.888;15.544;2023-08-20T14:50:15;6.00;;;3.13;;
72635;SDS011;60679;48.888;15.544;2023-08-20T14:52:40;5.97;;;2.87;;